Flight Number: EUR2036 Duration: 1:20
Departure: Copenhagen Kastrup (EKCH) at 18:20 Distance: 386 Nm
Arrival: Riga Int'l Airport (EVRA) at 19:40 Equipment: B737

Weather Information
Koebenhavn / Kastrup, Denmark (EKCH) 55-37N 012-39E 5M Oct 19, 2018 - 02:20 PM EDT / 2018.10.19 1820 UTC
Wind: from the W (260 degrees) at 7 MPH (6 KT):0
Visibility: greater than 7 mile(s):0
Sky conditions: mostly cloudy Temperature: 50 F (10 C) Dew Point: 44 F (7 C) Relative Humidity: 81% Pressure (altimeter): 30.27 in. Hg (1025 hPa)
ob: EKCH 191820Z 26006KT 9999 FEW036 BKN040 10/07 Q1025 NOSIG cycle: 18
Sunrise: 05:53 Sunset: 15:55 (UTC)

Riga International Airport, Latvia (EVRA) 56-55N 023-58E Oct 19, 2018 - 02:20 PM EDT / 2018.10.19 1820 UTC
Wind: Calm:0
Visibility: 5 mile(s):0 Weather: shallow fog Temperature: 33 F (1 C) Dew Point: 33 F (1 C) Relative Humidity: 100% Pressure (altimeter): 30.21 in. Hg (1023 hPa)
ob: EVRA 191820Z 00000KT 9000 MIFG NSC 01/01 Q1023 R36/090095 NOSIG cycle: 18
Sunrise: 05:11 Sunset: 15:06 (UTC)

TAF:2018/10/19 18:06 TAF EVRA 191700Z 1918/2018 20005KT 3000 BR SCT002 TEMPO 1918/2007 0500 FG VV001 BECMG 2007/2009 8000 NSW TEMPO 2007/2011 BKN010

Previous Pireps for this route
Date Aircraft Flight time Fuel used Landing rate On time
2013-01-28B7371.13100650No
2013-01-30B7371.2064500No
2013-01-31B7371.3067090No
2013-02-02B7371.13100650No
2013-03-07B73701.337756-139Yes
2013-07-21B73701.2813801-249No
2013-08-24B73701.3412616-324No
2013-11-15B73702.1011479-427Yes
2013-11-16B73702.2812607-160No
2013-12-21B7371.3067460Yes
2014-02-15B73701.3413282-162Yes
2014-02-17B73701.307866-571Yes
2014-03-22B737168850Yes
2015-03-29B73701.2511980-478Yes
(pireps marked green are flown by you)

Route map